Time;durP1;ratioP1;P1;durP2;ratioP2;P2;SDS_P1;SDS_P2;PMS_P1;PMS_P2;Temp;Humidity;BMP_temperature;BMP_pressure;BME280_temperature;BME280_humidity;BME280_pressure;Samples;Min_cycle;Max_cycle;Signal;HPM_P1;HPM_P2
2022/11/22 00:01:09;;;;;;;4.35;3.55;;;;;;;;;;5013829;28;20018;-77
2022/11/22 00:03:36;;;;;;;4.70;3.78;;;;;;;;;;5013526;28;20087;-77
2022/11/22 00:06:02;;;;;;;4.05;2.97;;;;;;;;;;5013844;28;20026;-77
2022/11/22 00:08:28;;;;;;;4.00;2.92;;;;;;;;;;5013212;28;20440;-77
2022/11/22 00:10:54;;;;;;;4.90;3.05;;;;;;;;;;5013838;28;20032;-77
2022/11/22 00:13:20;;;;;;;4.30;2.83;;;;;;;;;;5013526;28;20022;-77
2022/11/22 00:15:57;;;;;;;3.40;2.95;;;;;;;;;;5013306;28;20026;-77
2022/11/22 00:18:23;;;;;;;5.07;3.85;;;;;;;;;;5013367;28;20034;-78
2022/11/22 00:20:49;;;;;;;4.47;3.55;;;;;;;;;;5012752;28;20400;-77
2022/11/22 00:23:15;;;;;;;5.05;3.45;;;;;;;;;;5012389;28;20045;-77
2022/11/22 00:25:41;;;;;;;4.60;3.45;;;;;;;;;;5012430;28;20026;-77
2022/11/22 00:28:07;;;;;;;4.05;3.53;;;;;;;;;;5012614;28;20025;-77
2022/11/22 00:30:34;;;;;;;3.60;3.00;;;;;;;;;;5012195;28;20095;-77
2022/11/22 00:33:00;;;;;;;3.25;2.80;;;;;;;;;;5012353;28;20033;-77
2022/11/22 00:35:26;;;;;;;3.47;2.50;;;;;;;;;;5012278;28;20508;-77
2022/11/22 00:37:52;;;;;;;3.00;2.22;;;;;;;;;;5012195;28;20026;-76
2022/11/22 00:40:18;;;;;;;3.22;2.88;;;;;;;;;;5011808;28;20393;-77
2022/11/22 00:42:44;;;;;;;4.50;3.67;;;;;;;;;;5011938;28;20449;-77
2022/11/22 00:45:10;;;;;;;4.82;3.80;;;;;;;;;;5012333;28;20028;-77
2022/11/22 00:47:36;;;;;;;5.80;4.80;;;;;;;;;;5012055;28;20115;-77
2022/11/22 00:50:03;;;;;;;7.82;5.10;;;;;;;;;;5012300;28;20029;-78
2022/11/22 00:52:29;;;;;;;7.35;4.43;;;;;;;;;;5011847;28;20030;-77
2022/11/22 00:54:55;;;;;;;5.43;3.85;;;;;;;;;;5012043;28;20057;-77
2022/11/22 00:57:22;;;;;;;4.63;4.05;;;;;;;;;;5012221;28;20025;-77
2022/11/22 00:59:48;;;;;;;5.10;3.40;;;;;;;;;;4994233;28;20113;-77
2022/11/22 01:02:14;;;;;;;4.00;3.25;;;;;;;;;;5011956;28;20038;-77
2022/11/22 01:04:40;;;;;;;3.90;2.90;;;;;;;;;;5011601;28;20022;-77
2022/11/22 01:07:06;;;;;;;3.50;2.63;;;;;;;;;;5011997;28;20022;-77
2022/11/22 01:09:32;;;;;;;4.72;3.80;;;;;;;;;;5011880;28;20370;-77
2022/11/22 01:11:58;;;;;;;3.40;2.40;;;;;;;;;;5011747;28;20113;-77
2022/11/22 01:14:24;;;;;;;2.75;2.22;;;;;;;;;;5011882;28;20030;-77
2022/11/22 01:16:50;;;;;;;4.28;2.90;;;;;;;;;;5011475;28;20124;-77
2022/11/22 01:19:16;;;;;;;5.90;4.10;;;;;;;;;;5011708;28;20025;-78
2022/11/22 01:21:42;;;;;;;7.63;5.10;;;;;;;;;;4968610;28;1260333;-77
2022/11/22 01:24:09;;;;;;;9.10;5.68;;;;;;;;;;5012448;28;20425;-77
2022/11/22 01:26:35;;;;;;;8.18;5.05;;;;;;;;;;5012413;28;20443;-77
2022/11/22 01:29:01;;;;;;;9.10;4.95;;;;;;;;;;5012246;28;20518;-77
2022/11/22 01:31:28;;;;;;;6.00;4.57;;;;;;;;;;5012466;28;20061;-77
2022/11/22 01:33:54;;;;;;;5.97;4.20;;;;;;;;;;5011954;28;20026;-77
2022/11/22 01:36:21;;;;;;;6.70;5.10;;;;;;;;;;5012426;28;20026;-77
2022/11/22 01:38:47;;;;;;;5.75;3.72;;;;;;;;;;5012198;28;20033;-77
2022/11/22 01:41:13;;;;;;;4.72;3.53;;;;;;;;;;5012559;28;20438;-77
2022/11/22 01:43:39;;;;;;;5.15;4.10;;;;;;;;;;5012298;28;20033;-77
2022/11/22 01:46:18;;;;;;;3.92;3.50;;;;;;;;;;5011856;28;20068;-77
2022/11/22 01:48:50;;;;;;;4.82;3.38;;;;;;;;;;5012024;28;20436;-76
2022/11/22 01:51:35;;;;;;;6.25;3.67;;;;;;;;;;5014005;28;20076;-79
2022/11/22 01:54:03;;;;;;;4.75;3.55;;;;;;;;;;5016187;28;20400;-78
2022/11/22 01:56:30;;;;;;;7.25;4.97;;;;;;;;;;5016048;28;20026;-78
2022/11/22 01:58:59;;;;;;;18.83;14.45;;;;;;;;;;5016151;28;20033;-78
2022/11/22 02:01:27;;;;;;;21.13;14.65;;;;;;;;;;5015924;28;20022;-78
2022/11/22 02:03:53;;;;;;;19.27;15.70;;;;;;;;;;5016081;28;20491;-78
2022/11/22 02:06:20;;;;;;;16.63;11.25;;;;;;;;;;5016251;28;20111;-79
2022/11/22 02:09:04;;;;;;;12.82;7.78;;;;;;;;;;5016518;28;20373;-79
2022/11/22 02:11:30;;;;;;;8.23;5.15;;;;;;;;;;4998429;28;20474;-79
2022/11/22 02:13:56;;;;;;;6.28;4.32;;;;;;;;;;5015940;28;20113;-80
2022/11/22 02:16:23;;;;;;;8.20;5.70;;;;;;;;;;5015717;28;20026;-80
2022/11/22 02:18:49;;;;;;;8.50;5.90;;;;;;;;;;5016041;28;20026;-80
2022/11/22 02:21:15;;;;;;;6.97;5.68;;;;;;;;;;5015513;28;20046;-80
2022/11/22 02:24:00;;;;;;;5.60;4.47;;;;;;;;;;5016060;28;20121;-80
2022/11/22 02:26:26;;;;;;;;;;;;;;;;;;5016220;28;20433;-80
2022/11/22 02:28:53;;;;;;;6.47;4.80;;;;;;;;;;5015672;28;19937;-79
2022/11/22 02:31:39;;;;;;;6.53;4.70;;;;;;;;;;5015559;28;20029;-80
2022/11/22 02:34:06;;;;;;;5.28;4.40;;;;;;;;;;5015464;28;20022;-79
2022/11/22 02:36:34;;;;;;;10.18;6.53;;;;;;;;;;5015619;28;20030;-79
2022/11/22 02:39:00;;;;;;;9.50;7.65;;;;;;;;;;5015467;28;20026;-80
2022/11/22 02:41:27;;;;;;;9.35;7.57;;;;;;;;;;5015348;28;20044;-80
2022/11/22 02:43:53;;;;;;;7.20;4.65;;;;;;;;;;5015245;28;20066;-80
2022/11/22 02:46:21;;;;;;;7.78;5.93;;;;;;;;;;5015448;28;20025;-80
2022/11/22 02:48:47;;;;;;;8.05;5.50;;;;;;;;;;5015217;28;20465;-80
2022/11/22 02:51:15;;;;;;;7.55;5.82;;;;;;;;;;5015442;28;20137;-79
2022/11/22 02:53:52;;;;;;;6.57;4.82;;;;;;;;;;5007281;28;20100;-80
2022/11/22 02:56:18;;;;;;;10.25;7.95;;;;;;;;;;5015316;28;20029;-80
2022/11/22 02:58:44;;;;;;;13.70;9.20;;;;;;;;;;5014868;28;20097;-79
2022/11/22 03:01:11;;;;;;;15.63;10.18;;;;;;;;;;4997329;28;20390;-78
2022/11/22 03:03:37;;;;;;;17.60;11.18;;;;;;;;;;5014864;28;20097;-80
2022/11/22 03:06:03;;;;;;;13.45;9.77;;;;;;;;;;5015114;28;20022;-80
2022/11/22 03:08:30;;;;;;;13.77;10.35;;;;;;;;;;5015271;28;20026;-79
2022/11/22 03:10:59;;;;;;;18.48;12.20;;;;;;;;;;5014642;28;20025;-80
2022/11/22 03:13:25;;;;;;;14.95;10.20;;;;;;;;;;5014903;28;20092;-80
2022/11/22 03:15:51;;;;;;;13.70;9.45;;;;;;;;;;5014667;28;20026;-80
2022/11/22 03:18:17;;;;;;;10.02;7.25;;;;;;;;;;5015234;28;20413;-79
2022/11/22 03:20:43;;;;;;;13.43;8.65;;;;;;;;;;5014334;28;20057;-79
2022/11/22 03:23:09;;;;;;;11.95;7.72;;;;;;;;;;5014713;28;20072;-79
2022/11/22 03:25:39;;;;;;;9.43;6.55;;;;;;;;;;5014660;28;20122;-79
2022/11/22 03:28:05;;;;;;;8.80;6.47;;;;;;;;;;5014617;28;20466;-79
2022/11/22 03:30:31;;;;;;;8.25;6.30;;;;;;;;;;5014596;28;20540;-80
2022/11/22 03:32:57;;;;;;;10.52;6.45;;;;;;;;;;5014193;28;20025;-78
2022/11/22 03:35:24;;;;;;;6.72;6.00;;;;;;;;;;5014684;28;20018;-79
2022/11/22 03:37:50;;;;;;;8.98;6.65;;;;;;;;;;5014240;28;20037;-79
2022/11/22 03:40:16;;;;;;;10.05;7.07;;;;;;;;;;5014504;28;20112;-80
2022/11/22 03:42:42;;;;;;;10.70;6.78;;;;;;;;;;5014185;28;20026;-78
2022/11/22 03:45:08;;;;;;;4.80;4.30;;;;;;;;;;5014102;28;20025;-78
2022/11/22 03:47:34;;;;;;;5.47;4.30;;;;;;;;;;5014306;28;20022;-79
2022/11/22 03:50:00;;;;;;;6.13;4.47;;;;;;;;;;5014092;28;20018;-80
2022/11/22 03:52:28;;;;;;;4.25;3.70;;;;;;;;;;5014119;28;20385;-79
2022/11/22 03:54:54;;;;;;;4.80;4.07;;;;;;;;;;5014023;28;20034;-79
2022/11/22 03:57:20;;;;;;;4.93;3.70;;;;;;;;;;5014160;28;20026;-79
2022/11/22 03:59:46;;;;;;;5.07;3.92;;;;;;;;;;5013888;28;20081;-80
2022/11/22 04:02:12;;;;;;;6.15;4.43;;;;;;;;;;5013990;28;20462;-80
2022/11/22 04:04:38;;;;;;;4.72;3.15;;;;;;;;;;5013998;28;20389;-78
2022/11/22 04:07:04;;;;;;;6.82;3.67;;;;;;;;;;5013543;28;20061;-79
2022/11/22 04:09:30;;;;;;;5.88;4.13;;;;;;;;;;5013874;28;20026;-78
2022/11/22 04:11:56;;;;;;;6.55;4.25;;;;;;;;;;5013582;28;20034;-80
2022/11/22 04:17:07;;;;;;;;;;;;;;;;;;5014258;28;20049;-79
2022/11/22 04:19:33;;;;;;;7.50;4.20;;;;;;;;;;5013349;28;19905;-79
2022/11/22 04:21:59;;;;;;;5.45;3.95;;;;;;;;;;5013572;28;20025;-79
2022/11/22 04:27:10;;;;;;;6.28;3.78;;;;;;;;;;5013577;28;20585;-79
2022/11/22 04:29:36;;;;;;;5.68;3.45;;;;;;;;;;5013366;28;20473;-79
2022/11/22 04:34:47;;;;;;;7.40;4.43;;;;;;;;;;5013423;28;20037;-79
2022/11/22 04:37:13;;;;;;;12.55;7.90;;;;;;;;;;5013128;28;20437;-80
2022/11/22 04:39:39;;;;;;;14.85;8.90;;;;;;;;;;5013033;28;20032;-79
2022/11/22 04:44:50;;;;;;;12.38;6.75;;;;;;;;;;5012820;28;20045;-80
2022/11/22 04:50:02;;;;;;;9.73;5.05;;;;;;;;;;5013190;28;20048;-82
2022/11/22 04:55:12;;;;;;;5.53;3.30;;;;;;;;;;5013221;28;20041;-81
2022/11/22 04:57:38;;;;;;;6.55;3.70;;;;;;;;;;5012792;28;20021;-82
2022/11/22 05:00:05;;;;;;;7.15;3.97;;;;;;;;;;5013095;28;20105;-82
2022/11/22 05:02:31;;;;;;;4.95;3.25;;;;;;;;;;5012549;28;20053;-82
2022/11/22 05:04:57;;;;;;;5.25;3.63;;;;;;;;;;4993028;28;20019;-82
2022/11/22 05:07:23;;;;;;;7.03;3.45;;;;;;;;;;4993365;28;20022;-82
2022/11/22 05:09:49;;;;;;;5.68;3.83;;;;;;;;;;4992476;28;20048;-83
2022/11/22 05:12:16;;;;;;;6.18;3.55;;;;;;;;;;4975767;28;20031;-82
2022/11/22 05:14:42;;;;;;;4.63;3.97;;;;;;;;;;4973854;28;20025;-82
2022/11/22 05:17:08;;;;;;;7.13;5.75;;;;;;;;;;4973555;28;20038;-83
2022/11/22 05:19:34;;;;;;;5.72;4.70;;;;;;;;;;4973514;28;20467;-83
2022/11/22 05:22:00;;;;;;;10.60;8.15;;;;;;;;;;4973516;28;20023;-83
2022/11/22 05:24:27;;;;;;;8.02;6.10;;;;;;;;;;4975125;28;20030;-82
2022/11/22 05:26:54;;;;;;;18.38;13.10;;;;;;;;;;4980753;28;20049;-82
2022/11/22 05:29:20;;;;;;;24.13;15.23;;;;;;;;;;4980125;28;20034;-83
2022/11/22 05:39:02;;;;;;;16.20;11.98;;;;;;;;;;4839636;29;20113;-82
2022/11/22 05:42:04;;;;;;;;;;;;;;;;;;;;;
2022/11/22 05:51:20;;;;;;;9.40;6.78;;;;;;;;;;4836812;29;20109;-83
2022/11/22 06:10:38;;;;;;;15.80;10.30;;;;;;;;;;4911802;29;20118;-83
2022/11/22 06:13:36;;;;;;;;;;;;;;;;;;;;;
2022/11/22 06:19:14;;;;;;;15.15;10.30;;;;;;;;;;4911970;29;20044;-82
2022/11/22 06:28:39;;;;;;;47.40;29.38;;;;;;;;;;4893689;29;20039;-82
2022/11/22 06:31:25;;;;;;;58.00;34.08;;;;;;;;;;4892426;29;20155;-82
2022/11/22 06:34:12;;;;;;;22.85;14.85;;;;;;;;;;4920022;29;20087;-83
2022/11/22 06:36:38;;;;;;;18.30;13.52;;;;;;;;;;4933051;28;20040;-82
2022/11/22 06:39:05;;;;;;;21.60;15.45;;;;;;;;;;4991188;28;20014;-80
2022/11/22 06:41:35;;;;;;;21.10;16.13;;;;;;;;;;4994644;28;20038;-80
2022/11/22 06:44:06;;;;;;;18.55;14.88;;;;;;;;;;4994617;28;20030;-79
2022/11/22 06:46:32;;;;;;;21.75;14.65;;;;;;;;;;4993214;28;20050;-78
2022/11/22 06:49:01;;;;;;;24.27;15.75;;;;;;;;;;4994296;28;20470;-81
2022/11/22 06:51:29;;;;;;;21.92;14.82;;;;;;;;;;4994795;28;20027;-80
2022/11/22 06:53:55;;;;;;;24.73;17.40;;;;;;;;;;4990199;28;20034;-81
2022/11/22 06:56:27;;;;;;;22.92;15.85;;;;;;;;;;4984398;28;20101;-78
2022/11/22 06:58:54;;;;;;;161.05;49.03;;;;;;;;;;4995882;28;20029;-80
2022/11/22 07:01:22;;;;;;;99.38;35.40;;;;;;;;;;4994174;28;20493;-78
2022/11/22 07:03:48;;;;;;;54.08;26.13;;;;;;;;;;4991255;28;20026;-79
2022/11/22 07:06:22;;;;;;;52.38;22.80;;;;;;;;;;4987619;28;20038;-81
2022/11/22 07:08:48;;;;;;;43.35;22.17;;;;;;;;;;4999621;28;20042;-78
2022/11/22 07:11:16;;;;;;;33.08;23.77;;;;;;;;;;4986462;28;20214;-76
2022/11/22 07:13:42;;;;;;;40.13;27.35;;;;;;;;;;4988460;28;20116;-79
2022/11/22 07:16:10;;;;;;;28.50;22.90;;;;;;;;;;4994612;28;20052;-82
2022/11/22 07:18:36;;;;;;;28.42;21.00;;;;;;;;;;4993099;28;20049;-78
2022/11/22 07:21:09;;;;;;;23.50;17.63;;;;;;;;;;4990448;28;20030;-80
2022/11/22 07:23:35;;;;;;;22.17;16.88;;;;;;;;;;4990521;28;20061;-79
2022/11/22 07:26:01;;;;;;;25.17;14.20;;;;;;;;;;4996773;28;20026;-80
2022/11/22 07:28:28;;;;;;;21.92;14.30;;;;;;;;;;4991896;28;20041;-80
2022/11/22 07:30:58;;;;;;;23.33;14.88;;;;;;;;;;4990004;28;20038;-79
2022/11/22 07:33:27;;;;;;;23.52;15.60;;;;;;;;;;4976600;28;20042;-81
2022/11/22 07:36:05;;;;;;;22.40;15.20;;;;;;;;;;4983111;28;20124;-81
2022/11/22 07:38:31;;;;;;;27.33;17.88;;;;;;;;;;4984641;28;20041;-79
2022/11/22 07:40:57;;;;;;;19.23;13.38;;;;;;;;;;4997668;28;20027;-80
2022/11/22 07:43:36;;;;;;;16.75;11.63;;;;;;;;;;4991029;28;20031;-79
2022/11/22 07:46:20;;;;;;;31.08;19.45;;;;;;;;;;4978068;28;20079;-80
2022/11/22 07:48:48;;;;;;;53.72;31.98;;;;;;;;;;5001141;28;20109;-76
2022/11/22 07:51:20;;;;;;;32.35;21.73;;;;;;;;;;4983883;28;20081;-79
2022/11/22 07:53:46;;;;;;;78.03;50.35;;;;;;;;;;4985286;28;20070;-78
2022/11/22 07:56:13;;;;;;;62.10;41.20;;;;;;;;;;4975360;28;20445;-78
2022/11/22 07:58:39;;;;;;;45.78;29.50;;;;;;;;;;4990434;28;20041;-78
2022/11/22 08:01:09;;;;;;;62.22;31.48;;;;;;;;;;4974256;28;20077;-79
2022/11/22 08:03:35;;;;;;;73.15;32.03;;;;;;;;;;4992457;28;20610;-81
2022/11/22 08:06:02;;;;;;;110.63;36.90;;;;;;;;;;4992821;28;20034;-78
2022/11/22 08:08:38;;;;;;;35.80;19.88;;;;;;;;;;4989122;28;20062;-79
2022/11/22 08:11:09;;;;;;;76.20;29.55;;;;;;;;;;4985198;28;20728;-79
2022/11/22 08:13:49;;;;;;;;;;;;;;;;;;;;;
2022/11/22 08:16:40;;;;;;;89.43;29.45;;;;;;;;;;4951621;28;20032;-79
2022/11/22 08:19:06;;;;;;;60.55;21.48;;;;;;;;;;4950244;28;20047;-80
2022/11/22 08:21:32;;;;;;;43.63;16.85;;;;;;;;;;4944254;28;20036;-77
2022/11/22 08:23:58;;;;;;;44.58;19.25;;;;;;;;;;4950808;28;20130;-78
2022/11/22 08:26:25;;;;;;;64.13;22.92;;;;;;;;;;4949685;28;20084;-80
2022/11/22 08:28:51;;;;;;;37.97;15.90;;;;;;;;;;4949870;28;20110;-80
2022/11/22 08:31:20;;;;;;;30.13;18.15;;;;;;;;;;4950864;29;20139;-80
2022/11/22 08:33:47;;;;;;;20.50;13.77;;;;;;;;;;4951288;28;20035;-81
2022/11/22 08:36:14;;;;;;;55.85;20.23;;;;;;;;;;4919634;29;20038;-78
2022/11/22 08:38:41;;;;;;;58.58;21.75;;;;;;;;;;4941782;29;20035;-80
2022/11/22 08:41:07;;;;;;;94.35;53.00;;;;;;;;;;4935202;29;20459;-74
2022/11/22 08:43:33;;;;;;;75.45;43.00;;;;;;;;;;4950268;28;20031;-80
2022/11/22 08:46:00;;;;;;;70.68;28.65;;;;;;;;;;4949329;28;20038;-81
2022/11/22 08:48:27;;;;;;;67.43;24.95;;;;;;;;;;4993018;28;20135;-81
2022/11/22 08:50:54;;;;;;;57.85;22.50;;;;;;;;;;4993253;28;20093;-82
2022/11/22 08:53:21;;;;;;;60.60;22.05;;;;;;;;;;4985609;28;20030;-82
2022/11/22 08:56:01;;;;;;;41.60;17.17;;;;;;;;;;4991293;28;20461;-82
2022/11/22 08:58:30;;;;;;;40.83;20.27;;;;;;;;;;4990582;28;20042;-80
2022/11/22 09:04:18;;;;;;;31.70;15.07;;;;;;;;;;4893300;29;20044;-81
2022/11/22 09:06:44;;;;;;;31.95;14.05;;;;;;;;;;4977730;28;20034;-79
2022/11/22 09:09:10;;;;;;;25.25;12.68;;;;;;;;;;4993954;28;20074;-82
2022/11/22 09:11:36;;;;;;;28.20;11.45;;;;;;;;;;4974688;28;20018;-80
2022/11/22 09:14:03;;;;;;;31.45;14.07;;;;;;;;;;4972672;28;20027;-79
2022/11/22 09:16:29;;;;;;;47.30;21.90;;;;;;;;;;4955096;28;20363;-83
2022/11/22 09:18:55;;;;;;;39.45;15.07;;;;;;;;;;4985368;28;20030;-80
2022/11/22 09:21:22;;;;;;;30.40;12.77;;;;;;;;;;4991078;28;20564;-78
2022/11/22 09:23:49;;;;;;;37.80;15.15;;;;;;;;;;4986587;28;20077;-78
2022/11/22 09:26:19;;;;;;;27.48;11.88;;;;;;;;;;4989024;28;20034;-82
2022/11/22 09:28:48;;;;;;;33.58;14.90;;;;;;;;;;4991402;28;20555;-80
2022/11/22 09:31:17;;;;;;;37.53;15.93;;;;;;;;;;4986648;28;20039;-77
2022/11/22 09:33:44;;;;;;;32.88;17.23;;;;;;;;;;4983352;28;20500;-82
2022/11/22 09:36:20;;;;;;;24.90;15.13;;;;;;;;;;4979356;28;20541;-82
2022/11/22 09:38:47;;;;;;;34.92;17.50;;;;;;;;;;4976911;28;20054;-81
2022/11/22 09:41:28;;;;;;;26.63;12.82;;;;;;;;;;4974976;28;20134;-79
2022/11/22 09:44:04;;;;;;;29.52;14.52;;;;;;;;;;4973198;28;20065;-78
2022/11/22 09:46:30;;;;;;;30.73;14.73;;;;;;;;;;4982254;28;20042;-79
2022/11/22 09:48:59;;;;;;;24.90;11.85;;;;;;;;;;4970429;28;20018;-79
2022/11/22 09:51:29;;;;;;;22.02;10.90;;;;;;;;;;4983169;28;20026;-78
2022/11/22 09:54:01;;;;;;;18.40;9.70;;;;;;;;;;4979663;28;20118;-79
2022/11/22 09:56:29;;;;;;;27.75;12.98;;;;;;;;;;4981376;28;20109;-80
2022/11/22 09:59:07;;;;;;;26.20;17.13;;;;;;;;;;4980992;28;20114;-77
2022/11/22 10:01:33;;;;;;;51.83;35.85;;;;;;;;;;4989619;28;20065;-80
2022/11/22 10:04:18;;;;;;;21.88;13.88;;;;;;;;;;4982222;28;20030;-80
2022/11/22 10:06:53;;;;;;;12.95;7.22;;;;;;;;;;4969238;28;20044;-80
2022/11/22 10:09:26;;;;;;;16.15;6.43;;;;;;;;;;4988911;28;20101;-79
2022/11/22 10:12:15;;;;;;;18.75;8.80;;;;;;;;;;4985356;28;20022;-79
2022/11/22 10:14:41;;;;;;;14.85;6.72;;;;;;;;;;4947667;28;20485;-79
2022/11/22 10:17:20;;;;;;;23.98;8.68;;;;;;;;;;4976249;28;20066;-78
2022/11/22 10:20:05;;;;;;;39.83;15.98;;;;;;;;;;4983123;28;20069;-79
2022/11/22 10:22:31;;;;;;;;;;;;;;;;;;4992754;28;20521;-80
2022/11/22 10:25:02;;;;;;;27.67;11.63;;;;;;;;;;4994658;28;20016;-79
2022/11/22 10:27:32;;;;;;;27.08;10.57;;;;;;;;;;4993014;28;20078;-79
2022/11/22 10:30:17;;;;;;;59.70;22.20;;;;;;;;;;4991071;28;20512;-79
2022/11/22 10:33:03;;;;;;;33.38;15.95;;;;;;;;;;4991064;28;20092;-78
2022/11/22 10:35:47;;;;;;;47.15;20.10;;;;;;;;;;4977781;28;20046;-77
2022/11/22 10:38:32;;;;;;;70.15;30.98;;;;;;;;;;4989511;28;20035;-79
2022/11/22 10:40:58;;;;;;;;;;;;;;;;;;4985387;28;20022;-80
2022/11/22 10:43:43;;;;;;;41.55;15.70;;;;;;;;;;4996665;28;19913;-79
2022/11/22 10:46:15;;;;;;;40.00;15.02;;;;;;;;;;4996731;28;20034;-80
2022/11/22 10:48:47;;;;;;;74.78;25.75;;;;;;;;;;4994202;28;20606;-78
2022/11/22 10:51:13;;;;;;;62.30;25.27;;;;;;;;;;4995835;28;20023;-78
2022/11/22 10:53:59;;;;;;;50.63;23.25;;;;;;;;;;4988728;28;20367;-79
2022/11/22 10:56:40;;;;;;;81.18;32.72;;;;;;;;;;4975086;28;20390;-80
2022/11/22 10:59:28;;;;;;;51.72;21.17;;;;;;;;;;4978435;28;20094;-80
2022/11/22 11:01:55;;;;;;;50.75;18.90;;;;;;;;;;4992152;28;20037;-80
2022/11/22 11:04:23;;;;;;;66.13;22.77;;;;;;;;;;4988364;28;20478;-79
2022/11/22 11:06:50;;;;;;;114.13;34.50;;;;;;;;;;4989642;28;20390;-77
2022/11/22 11:09:22;;;;;;;82.80;25.48;;;;;;;;;;4991374;28;20030;-79
2022/11/22 11:11:49;;;;;;;45.92;20.00;;;;;;;;;;4965579;28;20031;-78
2022/11/22 11:14:34;;;;;;;87.15;27.98;;;;;;;;;;4986270;28;20136;-78
2022/11/22 11:17:00;;;;;;;88.70;39.78;;;;;;;;;;4980201;28;20108;-79
2022/11/22 11:19:29;;;;;;;153.40;73.13;;;;;;;;;;4985216;28;20029;-79
2022/11/22 11:22:17;;;;;;;183.25;77.40;;;;;;;;;;4990913;28;20037;-78
2022/11/22 11:24:44;;;;;;;170.93;72.82;;;;;;;;;;4987989;28;20051;-79
2022/11/22 11:27:11;;;;;;;215.80;86.32;;;;;;;;;;4987553;28;20157;-78
2022/11/22 11:29:42;;;;;;;185.43;71.05;;;;;;;;;;4971998;28;20030;-75
2022/11/22 11:32:15;;;;;;;122.95;53.63;;;;;;;;;;4985173;28;20087;-79
2022/11/22 11:34:46;;;;;;;104.70;46.65;;;;;;;;;;4990473;28;20062;-80
2022/11/22 11:37:27;;;;;;;276.25;82.93;;;;;;;;;;4987104;28;20037;-77
2022/11/22 11:39:53;;;;;;;184.95;58.60;;;;;;;;;;4979347;28;20027;-79
2022/11/22 11:42:23;;;;;;;107.70;37.40;;;;;;;;;;5002822;28;20125;-78
2022/11/22 11:44:49;;;;;;;142.98;46.40;;;;;;;;;;5006726;28;20058;-78
2022/11/22 11:47:25;;;;;;;114.63;36.60;;;;;;;;;;4986407;28;20035;-78
2022/11/22 11:49:51;;;;;;;29.02;14.63;;;;;;;;;;4989738;28;20032;-79
2022/11/22 11:52:28;;;;;;;37.17;13.55;;;;;;;;;;4975694;28;20041;-78
2022/11/22 11:54:58;;;;;;;13.00;8.35;;;;;;;;;;4990668;28;20034;-78
2022/11/22 11:57:27;;;;;;;95.97;29.35;;;;;;;;;;4994663;28;20026;-79
2022/11/22 11:59:58;;;;;;;67.90;22.05;;;;;;;;;;4994262;28;20433;-80
2022/11/22 12:02:53;;;;;;;39.08;15.57;;;;;;;;;;4981911;28;20031;-78
2022/11/22 12:05:23;;;;;;;63.85;21.05;;;;;;;;;;4983157;28;20026;-78
2022/11/22 12:11:09;;;;;;;91.72;30.80;;;;;;;;;;4985523;28;20050;-78
2022/11/22 12:13:35;;;;;;;;;;;;;;;;;;4977901;28;20078;-77
2022/11/22 12:16:20;;;;;;;37.30;14.27;;;;;;;;;;4985301;28;19953;-80
2022/11/22 12:18:46;;;;;;;;;;;;;;;;;;4996244;28;20500;-81
2022/11/22 12:21:22;;;;;;;29.83;13.82;;;;;;;;;;4993053;28;20024;-79
2022/11/22 12:23:58;;;;;;;40.78;14.45;;;;;;;;;;4988177;28;20055;-80
2022/11/22 12:26:26;;;;;;;44.35;18.02;;;;;;;;;;4986385;28;20031;-80
2022/11/22 12:28:53;;;;;;;38.70;16.02;;;;;;;;;;4988726;28;20041;-81
2022/11/22 12:31:37;;;;;;;55.38;21.10;;;;;;;;;;4995726;28;20108;-80
2022/11/22 12:34:03;;;;;;;;;;;;;;;;;;4984509;28;20037;-80
2022/11/22 12:36:36;;;;;;;44.15;17.17;;;;;;;;;;4982760;28;19910;-80
2022/11/22 12:39:03;;;;;;;46.58;18.55;;;;;;;;;;4984377;28;20018;-80
2022/11/22 12:41:30;;;;;;;76.65;27.40;;;;;;;;;;4985695;28;20037;-82
2022/11/22 12:44:07;;;;;;;63.80;24.35;;;;;;;;;;4988449;28;20045;-80
2022/11/22 12:46:38;;;;;;;60.22;31.35;;;;;;;;;;4984149;28;20043;-78
2022/11/22 12:49:07;;;;;;;37.53;18.95;;;;;;;;;;4986447;28;20038;-79
2022/11/22 12:51:36;;;;;;;62.53;29.52;;;;;;;;;;4996882;28;20026;-81
2022/11/22 12:54:04;;;;;;;36.58;18.00;;;;;;;;;;4992721;28;20037;-82
2022/11/22 12:56:36;;;;;;;66.88;28.13;;;;;;;;;;4981464;28;20057;-81
2022/11/22 12:59:21;;;;;;;59.40;25.25;;;;;;;;;;4986062;28;20031;-81
2022/11/22 13:02:09;;;;;;;48.08;28.33;;;;;;;;;;4984518;28;20105;-81
2022/11/22 13:04:52;;;;;;;25.50;14.95;;;;;;;;;;4974142;28;20519;-81
2022/11/22 13:07:24;;;;;;;38.85;23.27;;;;;;;;;;4984262;28;20035;-79
2022/11/22 13:09:55;;;;;;;352.30;102.85;;;;;;;;;;4987066;28;20046;-83
2022/11/22 13:12:24;;;;;;;67.18;26.17;;;;;;;;;;4984681;28;20030;-80
2022/11/22 13:15:32;;;;;;;38.20;19.58;;;;;;;;;;4988176;28;20033;-81
2022/11/22 13:17:58;;;;;;;25.80;14.75;;;;;;;;;;4958614;28;20133;-79
2022/11/22 13:20:32;;;;;;;13.10;7.07;;;;;;;;;;4990068;28;20081;-79
2022/11/22 13:23:29;;;;;;;22.75;9.50;;;;;;;;;;4987700;28;20484;-78
2022/11/22 13:26:16;;;;;;;24.90;11.35;;;;;;;;;;4992319;28;20030;-78
2022/11/22 13:32:07;;;;;;;13.60;7.53;;;;;;;;;;4961638;28;20031;-78
2022/11/22 13:34:35;;;;;;;;;;;;;;;;;;4980097;28;20117;-78
2022/11/22 13:37:11;;;;;;;20.13;10.15;;;;;;;;;;4989009;28;20396;-79
2022/11/22 13:39:53;;;;;;;16.50;8.52;;;;;;;;;;4985409;28;20031;-79
2022/11/22 13:42:37;;;;;;;6.65;4.75;;;;;;;;;;4987054;28;20485;-78
2022/11/22 13:45:29;;;;;;;11.37;5.80;;;;;;;;;;4984751;28;20057;-78
2022/11/22 13:51:01;;;;;;;13.48;5.57;;;;;;;;;;4980271;28;20045;-78
2022/11/22 13:53:42;;;;;;;11.20;4.57;;;;;;;;;;4978882;28;20090;-76
2022/11/22 13:56:46;;;;;;;19.83;5.97;;;;;;;;;;4985628;28;20109;-77
2022/11/22 14:00:06;;;;;;;7.78;3.70;;;;;;;;;;5002021;28;20402;-78
2022/11/22 14:06:22;;;;;;;87.53;30.52;;;;;;;;;;4893045;28;20124;-77
2022/11/22 14:08:48;;;;;;;155.80;46.08;;;;;;;;;;4994336;28;20160;-78
2022/11/22 14:11:20;;;;;;;337.88;95.40;;;;;;;;;;4992949;28;20516;-77
2022/11/22 14:14:05;;;;;;;309.30;91.35;;;;;;;;;;4993558;28;20035;-79
2022/11/22 14:16:44;;;;;;;216.27;70.97;;;;;;;;;;4990240;28;20026;-78
2022/11/22 14:19:10;;;;;;;18.77;7.88;;;;;;;;;;4991761;28;20107;-78
2022/11/22 14:21:55;;;;;;;25.05;15.82;;;;;;;;;;4984844;28;20057;-78
2022/11/22 14:24:21;;;;;;;9.77;5.55;;;;;;;;;;4974722;28;20062;-78
2022/11/22 14:26:52;;;;;;;10.70;4.32;;;;;;;;;;4974384;28;20731;-79
2022/11/22 14:29:37;;;;;;;10.75;4.78;;;;;;;;;;4986549;28;20030;-79
2022/11/22 14:32:21;;;;;;;14.98;4.95;;;;;;;;;;4993992;28;20038;-78
2022/11/22 14:35:02;;;;;;;22.05;9.20;;;;;;;;;;4980045;28;20120;-78
2022/11/22 14:37:30;;;;;;;14.60;4.75;;;;;;;;;;4985051;28;20386;-78
2022/11/22 14:40:08;;;;;;;14.18;4.13;;;;;;;;;;4993746;28;20030;-78
2022/11/22 14:42:53;;;;;;;17.02;6.07;;;;;;;;;;4990681;28;20026;-79
2022/11/22 14:45:22;;;;;;;16.92;5.05;;;;;;;;;;4999841;28;20033;-79
2022/11/22 14:48:07;;;;;;;18.50;6.18;;;;;;;;;;5014071;28;20029;-79
2022/11/22 14:50:33;;;;;;;;;;;;;;;;;;5015241;28;20049;-77
2022/11/22 14:53:03;;;;;;;247.20;171.15;;;;;;;;;;5006142;28;20365;-77
2022/11/22 14:55:31;;;;;;;18.33;9.70;;;;;;;;;;5014942;28;20429;-78
2022/11/22 14:58:02;;;;;;;11.30;3.55;;;;;;;;;;5014123;28;20156;-78
2022/11/22 15:00:40;;;;;;;6.78;3.08;;;;;;;;;;5014721;28;20022;-78
2022/11/22 15:06:25;;;;;;;31.10;22.85;;;;;;;;;;4991090;28;20052;-78
2022/11/22 15:09:07;;;;;;;6.28;2.85;;;;;;;;;;4999433;28;20094;-78
2022/11/22 15:11:40;;;;;;;8.68;3.33;;;;;;;;;;4996170;28;20382;-78
2022/11/22 15:14:06;;;;;;;6.45;3.00;;;;;;;;;;4995823;28;20520;-79
2022/11/22 15:16:32;;;;;;;7.50;3.05;;;;;;;;;;4996077;28;20058;-79
2022/11/22 15:19:01;;;;;;;5.80;2.45;;;;;;;;;;4987725;28;20485;-78
2022/11/22 15:21:35;;;;;;;4.15;2.00;;;;;;;;;;4988680;28;20030;-79
2022/11/22 15:24:01;;;;;;;6.05;3.10;;;;;;;;;;4985429;28;20129;-79
2022/11/22 15:26:31;;;;;;;4.50;2.97;;;;;;;;;;4985649;28;20035;-78
2022/11/22 15:28:59;;;;;;;9.85;4.05;;;;;;;;;;4996099;28;20014;-78
2022/11/22 15:31:32;;;;;;;23.75;8.48;;;;;;;;;;4995911;28;20023;-78
2022/11/22 15:33:58;;;;;;;17.30;6.40;;;;;;;;;;4990497;28;20022;-78
2022/11/22 15:36:33;;;;;;;13.73;4.53;;;;;;;;;;4996341;28;20022;-78
2022/11/22 15:39:00;;;;;;;15.82;5.43;;;;;;;;;;4993053;28;20018;-78
2022/11/22 15:41:28;;;;;;;14.40;4.90;;;;;;;;;;4995975;28;20170;-79
2022/11/22 15:43:54;;;;;;;8.48;3.47;;;;;;;;;;4995941;28;20084;-78
2022/11/22 15:46:24;;;;;;;104.95;75.80;;;;;;;;;;4995843;28;20113;-78
2022/11/22 15:48:50;;;;;;;28.75;18.25;;;;;;;;;;4993136;28;20039;-79
2022/11/22 15:51:17;;;;;;;33.03;16.52;;;;;;;;;;4993528;28;20027;-79
2022/11/22 15:54:01;;;;;;;27.08;17.00;;;;;;;;;;4995503;28;20022;-79
2022/11/22 15:56:32;;;;;;;93.68;57.83;;;;;;;;;;5009945;28;20036;-78
2022/11/22 15:58:58;;;;;;;37.20;21.50;;;;;;;;;;4993515;28;20027;-80
2022/11/22 16:01:24;;;;;;;16.98;9.02;;;;;;;;;;4986463;28;20022;-81
2022/11/22 16:03:53;;;;;;;108.72;72.20;;;;;;;;;;4995430;28;20497;-80
2022/11/22 16:06:21;;;;;;;68.13;42.53;;;;;;;;;;4978057;28;20390;-81
2022/11/22 16:09:07;;;;;;;24.05;14.10;;;;;;;;;;4994630;28;20030;-81
2022/11/22 16:11:35;;;;;;;13.38;5.03;;;;;;;;;;4992942;28;20023;-81